Terminal Aerodrome Forecast
Issued by NWS

Home | Current Version | Previous Version | Text Only | Print | Product List | Glossary On
Versions: 1 2 3 4 5 6 7 8 9 10 11 12 13
000
FTUS46 KMTR 270520
TAFSNS
TAF
KSNS 270520Z 2706/2806 27015KT P6SM OVC012
     FM270800 28011KT P6SM OVC009
     FM271800 29014KT P6SM FEW014
     FM280300 29010KT P6SM OVC010=

USA.gov is the U.S. government's official web portal to all federal, state and local government web resources and services.